Temp: 7.3°C   Baro: 1005.1mb
  Wind: 2.0mph   Dir: SW (221°)
  Rain: 5.6mm (0.0mm/hr)
  Solar: 0W/m2  Hum: 95%
 
Bath Spa Weather Historical Data
 
Daily Summary for January 26, 2020 Units:  Metric    English   Both
Next Day »
Daily Weekly Monthly Yearly Custom
  Current: High: Low: Average:
Temperature: 7.4 °C 10.0 °C 6.8 °C 8.5 °C
Dew Point: 6.7 °C 8.8 °C 6.1 °C 7.4 °C
Humidity: 95% 95% 88% 92%
Wind Speed: 4.7km/h 25.9km/h 0.0km/h 6.1km/h
Wind Gust: 8.0km/h 27.4km/h - -
Wind directionSW - - SW
Pressure: 1005.0 hPa 1012.1 hPa 1004.3 hPa -
Precipitation: 5.6 mm      
Historical Graphs
 
 
Tabular Data for January 26, 2020
Time Temperature Dew Point Pressure Wind direction Wind Speed Wind Gust Humidity Rainfall Rate (Hourly) solar
00:00 7.7 °C 6.9 °C 1012.1 hPa South 1.4 km/h 6.4 km/h 95% 0.0 mm 0.00 W/m2
00:05 7.7 °C 6.9 °C 1012.1 hPa SSE 3.2 km/h 8.0 km/h 95% 0.0 mm 0.00 W/m2
00:10 7.7 °C 6.9 °C 1012.1 hPa South 7.9 km/h 9.7 km/h 95% 0.0 mm 0.00 W/m2
00:15 7.7 °C 6.9 °C 1012.1 hPa SE 6.4 km/h 9.7 km/h 95% 0.0 mm 0.00 W/m2
00:20 7.8 °C 7.0 °C 1012.1 hPa SSE 9.7 km/h 12.9 km/h 95% 0.0 mm 0.00 W/m2
00:25 7.8 °C 7.0 °C 1012.1 hPa SSE 6.4 km/h 11.3 km/h 95% 0.0 mm 0.00 W/m2
00:30 7.9 °C 7.1 °C 1011.7 hPa SSE 4.7 km/h 17.7 km/h 95% 0.0 mm 0.00 W/m2
00:35 7.9 °C 7.1 °C 1011.7 hPa SSE 4.7 km/h 11.3 km/h 95% 0.0 mm 0.00 W/m2
00:40 7.9 °C 7.1 °C 1011.7 hPa SE 4.7 km/h 9.7 km/h 95% 0.0 mm 0.00 W/m2
00:45 7.9 °C 7.1 °C 1011.7 hPa South 4.7 km/h 6.4 km/h 95% 0.0 mm 0.00 W/m2
00:50 7.9 °C 7.1 °C 1011.7 hPa South 3.2 km/h 8.0 km/h 95% 0.0 mm 0.00 W/m2
00:55 7.9 °C 7.1 °C 1011.7 hPa SSE 6.4 km/h 8.0 km/h 95% 0.0 mm 0.00 W/m2
01:00 8.0 °C 7.2 °C 1011.7 hPa South 7.9 km/h 11.3 km/h 95% 0.0 mm 0.00 W/m2
01:05 8.0 °C 7.1 °C 1011.7 hPa SSE 3.2 km/h 8.0 km/h 94% 0.0 mm 0.00 W/m2
01:10 8.0 °C 7.1 °C 1011.4 hPa South 6.4 km/h 11.3 km/h 94% 0.0 mm 0.00 W/m2
01:15 7.9 °C 7.0 °C 1011.4 hPa South 3.2 km/h 6.4 km/h 94% 0.0 mm 0.00 W/m2
01:20 7.9 °C 7.0 °C 1011.4 hPa South 9.7 km/h 11.3 km/h 94% 0.0 mm 0.00 W/m2
01:25 7.9 °C 7.0 °C 1011.4 hPa South 3.2 km/h 9.7 km/h 94% 0.0 mm 0.00 W/m2
01:30 7.9 °C 7.0 °C 1011.4 hPa South 11.1 km/h 11.3 km/h 94% 0.0 mm 0.00 W/m2
01:35 7.9 °C 7.0 °C 1011.4 hPa South 4.7 km/h 12.9 km/h 94% 0.0 mm 0.00 W/m2
01:40 7.9 °C 7.0 °C 1011.4 hPa South 4.7 km/h 11.3 km/h 94% 0.0 mm 0.00 W/m2
01:45 7.9 °C 7.0 °C 1011.4 hPa SSW 7.9 km/h 8.0 km/h 94% 0.0 mm 0.00 W/m2
01:50 7.9 °C 7.0 °C 1011.1 hPa South 3.2 km/h 6.4 km/h 94% 0.0 mm 0.00 W/m2
01:55 8.0 °C 7.1 °C 1011.1 hPa South 4.7 km/h 8.0 km/h 94% 0.0 mm 0.00 W/m2
02:00 8.0 °C 7.1 °C 1011.4 hPa South 1.4 km/h 6.4 km/h 94% 0.0 mm 0.00 W/m2
02:05 8.0 °C 6.9 °C 1011.1 hPa SSW 3.2 km/h 6.4 km/h 93% 0.0 mm 0.00 W/m2
02:10 8.0 °C 6.9 °C 1011.1 hPa South 1.4 km/h 3.2 km/h 93% 0.0 mm 0.00 W/m2
02:15 8.0 °C 6.9 °C 1011.1 hPa South 6.4 km/h 8.0 km/h 93% 0.0 mm 0.00 W/m2
02:20 8.0 °C 6.9 °C 1011.1 hPa South 1.4 km/h 4.8 km/h 93% 0.0 mm 0.00 W/m2
02:25 8.1 °C 7.0 °C 1011.1 hPa SSW 4.7 km/h 9.7 km/h 93% 0.0 mm 0.00 W/m2
02:30 8.1 °C 7.0 °C 1011.1 hPa South 4.7 km/h 12.9 km/h 93% 0.0 mm 0.00 W/m2
02:35 8.1 °C 7.0 °C 1011.1 hPa South 3.2 km/h 9.7 km/h 93% 0.0 mm 0.00 W/m2
02:40 8.1 °C 7.0 °C 1011.1 hPa South 4.7 km/h 6.4 km/h 93% 0.0 mm 0.00 W/m2
02:45 8.1 °C 7.0 °C 1011.1 hPa SSW 1.4 km/h 3.2 km/h 93% 0.0 mm 0.00 W/m2
02:50 8.1 °C 7.0 °C 1011.1 hPa South 4.7 km/h 8.0 km/h 93% 0.0 mm 0.00 W/m2
02:55 8.1 °C 7.0 °C 1010.7 hPa South 1.4 km/h 3.2 km/h 93% 0.0 mm 0.00 W/m2
03:00 8.1 °C 7.0 °C 1010.7 hPa South 4.7 km/h 6.4 km/h 93% 0.0 mm 0.00 W/m2
03:05 8.1 °C 7.0 °C 1010.7 hPa South 4.7 km/h 9.7 km/h 93% 0.0 mm 0.00 W/m2
03:10 8.1 °C 7.0 °C 1010.7 hPa South 3.2 km/h 8.0 km/h 93% 0.0 mm 0.00 W/m2
03:15 8.1 °C 6.9 °C 1010.4 hPa SSW 3.2 km/h 8.0 km/h 92% 0.0 mm 0.00 W/m2
03:20 8.2 °C 7.1 °C 1010.4 hPa SSW 6.4 km/h 9.7 km/h 93% 0.0 mm 0.00 W/m2
03:25 8.3 °C 7.2 °C 1010.4 hPa South 3.2 km/h 6.4 km/h 93% 0.0 mm 0.00 W/m2
03:30 8.3 °C 7.1 °C 1010.4 hPa South 1.4 km/h 9.7 km/h 92% 0.0 mm 0.00 W/m2
03:36 8.3 °C 7.1 °C 1010.4 hPa South 4.7 km/h 6.4 km/h 92% 0.0 mm 0.00 W/m2
03:40 8.3 °C 7.1 °C 1010.4 hPa SW 1.4 km/h 8.0 km/h 92% 0.0 mm 0.00 W/m2
03:45 8.3 °C 7.1 °C 1010.4 hPa SW 7.9 km/h 12.9 km/h 92% 0.0 mm 0.00 W/m2
03:50 8.3 °C 7.1 °C 1010.4 hPa SW 4.7 km/h 9.7 km/h 92% 0.0 mm 0.00 W/m2
03:55 8.3 °C 7.1 °C 1010.4 hPa SSW 3.2 km/h 8.0 km/h 92% 0.0 mm 0.00 W/m2
04:00 8.2 °C 7.0 °C 1010.4 hPa SW 3.2 km/h 9.7 km/h 92% 0.0 mm 0.00 W/m2
04:05 8.2 °C 7.0 °C 1010.4 hPa SW 3.2 km/h 9.7 km/h 92% 0.0 mm 0.00 W/m2
04:10 8.2 °C 7.0 °C 1010.4 hPa WSW 3.2 km/h 8.0 km/h 92% 0.0 mm 0.00 W/m2
04:15 8.2 °C 7.0 °C 1010.4 hPa WSW 4.7 km/h 9.7 km/h 92% 0.0 mm 0.00 W/m2
04:20 8.1 °C 6.9 °C 1010.4 hPa West 3.2 km/h 8.0 km/h 92% 0.0 mm 0.00 W/m2
04:25 8.1 °C 6.9 °C 1010.4 hPa West 4.7 km/h 6.4 km/h 92% 0.0 mm 0.00 W/m2
04:30 8.1 °C 6.9 °C 1010.4 hPa West 3.2 km/h 6.4 km/h 92% 0.0 mm 0.00 W/m2
04:35 8.1 °C 6.9 °C 1010.0 hPa SW 3.2 km/h 3.2 km/h 92% 0.0 mm 0.00 W/m2
04:40 8.2 °C 7.0 °C 1010.0 hPa WSW 1.4 km/h 11.3 km/h 92% 0.0 mm 0.00 W/m2
04:45 8.2 °C 7.0 °C 1010.0 hPa WSW 3.2 km/h 4.8 km/h 92% 0.0 mm 0.00 W/m2
04:50 8.2 °C 7.0 °C 1010.0 hPa SSW 4.7 km/h 6.4 km/h 92% 0.0 mm 0.00 W/m2
04:55 8.2 °C 6.8 °C 1010.0 hPa SW 3.2 km/h 11.3 km/h 91% 0.0 mm 0.00 W/m2
05:00 8.2 °C 6.8 °C 1010.0 hPa SSW 3.2 km/h 6.4 km/h 91% 0.0 mm 0.00 W/m2
05:05 8.2 °C 6.8 °C 1010.0 hPa WSW 6.4 km/h 8.0 km/h 91% 0.0 mm 0.00 W/m2
05:10 8.2 °C 6.8 °C 1010.0 hPa WSW 6.4 km/h 8.0 km/h 91% 0.0 mm 0.00 W/m2
05:15 8.2 °C 6.8 °C 1010.0 hPa SW 3.2 km/h 6.4 km/h 91% 0.0 mm 0.00 W/m2
05:20 8.2 °C 6.8 °C 1010.0 hPa SSW 4.7 km/h 8.0 km/h 91% 0.0 mm 0.00 W/m2
05:25 8.1 °C 6.7 °C 1010.0 hPa SSW 3.2 km/h 11.3 km/h 91% 0.0 mm 0.00 W/m2
05:30 8.1 °C 6.7 °C 1010.0 hPa South 3.2 km/h 12.9 km/h 91% 0.0 mm 0.00 W/m2
05:35 8.1 °C 6.7 °C 1010.0 hPa SW 6.4 km/h 11.3 km/h 91% 0.0 mm 0.00 W/m2
05:40 8.1 °C 6.6 °C 1010.0 hPa WSW 6.4 km/h 11.3 km/h 90% 0.0 mm 0.00 W/m2
05:45 8.2 °C 6.7 °C 1010.0 hPa WSW 9.7 km/h 12.9 km/h 90% 0.0 mm 0.00 W/m2
05:51 8.2 °C 6.7 °C 1010.0 hPa WSW 3.2 km/h 6.4 km/h 90% 0.0 mm 0.00 W/m2
05:55 8.2 °C 6.7 °C 1009.7 hPa SW 6.4 km/h 11.3 km/h 90% 0.0 mm 0.00 W/m2
06:00 8.2 °C 6.7 °C 1009.7 hPa SW 6.4 km/h 8.0 km/h 90% 0.0 mm 0.00 W/m2
06:05 8.2 °C 6.7 °C 1009.7 hPa SW 6.4 km/h 11.3 km/h 90% 0.0 mm 0.00 W/m2
06:10 8.2 °C 6.5 °C 1009.7 hPa SW 4.7 km/h 9.7 km/h 89% 0.0 mm 0.00 W/m2
06:15 8.3 °C 6.8 °C 1009.7 hPa SW 4.7 km/h 9.7 km/h 90% 0.0 mm 0.00 W/m2
06:21 8.3 °C 6.6 °C 1009.4 hPa South 3.2 km/h 9.7 km/h 89% 0.0 mm 0.00 W/m2
06:25 8.4 °C 6.9 °C 1009.7 hPa SSW 4.7 km/h 12.9 km/h 90% 0.0 mm 0.00 W/m2
06:30 8.3 °C 6.8 °C 1009.7 hPa SSE 9.7 km/h 9.7 km/h 90% 0.0 mm 0.00 W/m2
06:35 8.3 °C 6.8 °C 1009.7 hPa SSW 3.2 km/h 9.7 km/h 90% 0.0 mm 0.00 W/m2
06:40 8.3 °C 6.8 °C 1009.4 hPa SSW 1.4 km/h 9.7 km/h 90% 0.0 mm 0.00 W/m2
06:45 8.3 °C 6.8 °C 1009.4 hPa SW 3.2 km/h 8.0 km/h 90% 0.0 mm 0.00 W/m2
06:50 8.2 °C 6.7 °C 1009.4 hPa SSW 4.7 km/h 8.0 km/h 90% 0.0 mm 0.00 W/m2
06:55 8.2 °C 6.7 °C 1009.4 hPa Calm   8.0 km/h 90% 0.0 mm 0.00 W/m2
07:00 8.2 °C 6.7 °C 1009.4 hPa SSW 1.4 km/h 3.2 km/h 90% 0.0 mm 0.00 W/m2
07:05 8.1 °C 6.6 °C 1009.4 hPa SW 3.2 km/h 8.0 km/h 90% 0.0 mm 0.00 W/m2
07:10 8.1 °C 6.6 °C 1009.4 hPa SSW 4.7 km/h 4.8 km/h 90% 0.0 mm 0.00 W/m2
07:15 8.1 °C 6.6 °C 1009.4 hPa SSW 3.2 km/h 4.8 km/h 90% 0.0 mm 0.00 W/m2
07:20 8.0 °C 6.5 °C 1009.4 hPa SSW 7.9 km/h 9.7 km/h 90% 0.0 mm 0.00 W/m2
07:25 7.9 °C 6.4 °C 1009.0 hPa South 3.2 km/h 4.8 km/h 90% 0.0 mm 0.00 W/m2
07:30 8.0 °C 6.5 °C 1009.0 hPa East 3.2 km/h 4.8 km/h 90% 0.0 mm 0.00 W/m2
07:35 7.9 °C 6.4 °C 1009.0 hPa SSE 1.4 km/h 8.0 km/h 90% 0.0 mm 0.00 W/m2
07:40 7.9 °C 6.4 °C 1009.0 hPa SSE 1.4 km/h 3.2 km/h 90% 0.0 mm 0.00 W/m2
07:45 7.9 °C 6.4 °C 1009.0 hPa Calm   3.2 km/h 90% 0.0 mm 0.00 W/m2
07:50 8.0 °C 6.5 °C 1009.0 hPa South 3.2 km/h 6.4 km/h 90% 0.0 mm 0.00 W/m2
07:55 7.9 °C 6.4 °C 1009.0 hPa SSW 7.9 km/h 12.9 km/h 90% 0.0 mm 0.00 W/m2
08:00 8.1 °C 6.6 °C 1009.0 hPa SSW 7.9 km/h 8.0 km/h 90% 0.0 mm 0.00 W/m2
08:05 8.3 °C 6.8 °C 1009.0 hPa SSW 17.7 km/h 19.3 km/h 90% 0.0 mm 7.00 W/m2
08:10 8.5 °C 6.8 °C 1009.0 hPa SSE 11.1 km/h 14.5 km/h 89% 0.0 mm 16.00 W/m2
08:15 8.6 °C 6.7 °C 1009.0 hPa South 14.3 km/h 14.5 km/h 88% 0.0 mm 19.00 W/m2
08:20 8.6 °C 6.7 °C 1009.0 hPa South 9.7 km/h 17.7 km/h 88% 0.0 mm 19.00 W/m2
08:25 8.6 °C 6.7 °C 1009.0 hPa South 11.1 km/h 14.5 km/h 88% 0.0 mm 30.00 W/m2
08:30 8.6 °C 6.7 °C 1009.0 hPa South 11.1 km/h 17.7 km/h 88% 0.0 mm 44.00 W/m2
08:35 8.6 °C 6.7 °C 1009.0 hPa South 11.1 km/h 12.9 km/h 88% 0.0 mm 44.00 W/m2
08:40 8.7 °C 6.8 °C 1009.0 hPa SSW 6.4 km/h 11.3 km/h 88% 0.0 mm 47.00 W/m2
08:45 8.7 °C 6.8 °C 1009.0 hPa South 9.7 km/h 11.3 km/h 88% 0.0 mm 51.00 W/m2
08:50 8.7 °C 6.8 °C 1009.0 hPa SSE 3.2 km/h 11.3 km/h 88% 0.0 mm 51.00 W/m2
08:55 8.7 °C 7.0 °C 1009.0 hPa South 7.9 km/h 8.0 km/h 89% 0.0 mm 53.00 W/m2
09:00 8.7 °C 7.0 °C 1008.7 hPa South 3.2 km/h 9.7 km/h 89% 0.0 mm 54.00 W/m2
09:06 8.7 °C 7.0 °C 1008.7 hPa South 3.2 km/h 11.3 km/h 89% 0.0 mm 62.00 W/m2
09:10 8.8 °C 7.1 °C 1008.7 hPa SSE 4.7 km/h 6.4 km/h 89% 0.0 mm 70.00 W/m2
09:15 8.8 °C 7.1 °C 1008.7 hPa SSW 3.2 km/h 9.7 km/h 89% 0.0 mm 76.00 W/m2
09:20 8.8 °C 7.1 °C 1008.7 hPa SW 4.7 km/h 11.3 km/h 89% 0.0 mm 79.00 W/m2
09:25 8.8 °C 7.1 °C 1008.7 hPa SSW 3.2 km/h 9.7 km/h 89% 0.0 mm 77.00 W/m2
09:31 8.8 °C 7.1 °C 1008.7 hPa South 6.4 km/h 9.7 km/h 89% 0.0 mm 76.00 W/m2
09:35 8.9 °C 7.2 °C 1008.4 hPa South 6.4 km/h 16.1 km/h 89% 0.0 mm 77.00 W/m2
09:40 8.9 °C 7.2 °C 1008.4 hPa South 11.1 km/h 17.7 km/h 89% 0.0 mm 76.00 W/m2
09:45 8.9 °C 7.2 °C 1008.4 hPa South 9.7 km/h 12.9 km/h 89% 0.0 mm 74.00 W/m2
09:50 8.9 °C 7.2 °C 1008.4 hPa South 7.9 km/h 17.7 km/h 89% 0.0 mm 72.00 W/m2
09:55 9.0 °C 7.3 °C 1008.4 hPa SSW 11.1 km/h 25.7 km/h 89% 0.0 mm 60.00 W/m2
10:00 9.1 °C 7.5 °C 1008.4 hPa South 9.7 km/h 17.7 km/h 90% 0.0 mm 62.00 W/m2
10:05 9.2 °C 7.5 °C 1008.4 hPa SSW 7.9 km/h 20.9 km/h 89% 0.0 mm 62.00 W/m2
10:10 9.2 °C 7.5 °C 1008.4 hPa SSE 13.0 km/h 16.1 km/h 89% 0.0 mm 60.00 W/m2
10:15 9.3 °C 7.6 °C 1008.4 hPa SSE 9.7 km/h 14.5 km/h 89% 0.0 mm 60.00 W/m2
10:20 9.3 °C 7.6 °C 1008.4 hPa SSE 7.9 km/h 19.3 km/h 89% 0.0 mm 67.00 W/m2
10:25 9.4 °C 7.7 °C 1008.4 hPa South 20.9 km/h 20.9 km/h 89% 0.0 mm 56.00 W/m2
10:30 9.4 °C 7.7 °C 1008.4 hPa South 13.0 km/h 16.1 km/h 89% 0.0 mm 81.00 W/m2
10:35 9.5 °C 7.8 °C 1008.0 hPa SSW 11.1 km/h 12.9 km/h 89% 0.0 mm 77.00 W/m2
10:40 9.6 °C 7.9 °C 1008.0 hPa South 4.7 km/h 14.5 km/h 89% 0.0 mm 54.00 W/m2
10:45 9.6 °C 7.9 °C 1008.0 hPa South 9.7 km/h 16.1 km/h 89% 0.0 mm 62.00 W/m2
10:50 9.7 °C 8.0 °C 1008.0 hPa SSW 9.7 km/h 17.7 km/h 89% 0.0 mm 69.00 W/m2
10:56 9.7 °C 8.0 °C 1008.0 hPa South 4.7 km/h 16.1 km/h 89% 0.0 mm 58.00 W/m2
11:00 9.7 °C 8.0 °C 1008.0 hPa South 6.4 km/h 16.1 km/h 89% 0.0 mm 47.00 W/m2
11:05 9.7 °C 7.8 °C 1008.0 hPa SSW 9.7 km/h 11.3 km/h 88% 0.0 mm 54.00 W/m2
11:10 9.7 °C 8.0 °C 1008.0 hPa South 11.1 km/h 20.9 km/h 89% 0.0 mm 44.00 W/m2
11:15 9.6 °C 7.9 °C 1007.7 hPa SSE 16.3 km/h 24.1 km/h 89% 0.3 mm 35.00 W/m2
11:20 9.6 °C 8.0 °C 1007.7 hPa SSW 9.7 km/h 24.1 km/h 90% 0.3 mm 40.00 W/m2
11:25 9.5 °C 7.9 °C 1007.7 hPa SSE 9.7 km/h 16.1 km/h 90% 0.3 mm 60.00 W/m2
11:30 9.5 °C 8.1 °C 1007.7 hPa SSW 6.4 km/h 14.5 km/h 91% 0.3 mm 47.00 W/m2
11:35 9.4 °C 8.0 °C 1007.3 hPa South 11.1 km/h 14.5 km/h 91% 0.3 mm 28.00 W/m2
11:40 9.4 °C 8.0 °C 1007.3 hPa SSW 9.7 km/h 12.9 km/h 91% 0.5 mm 23.00 W/m2
11:45 9.5 °C 8.1 °C 1007.3 hPa SW 3.2 km/h 16.1 km/h 91% 0.5 mm 47.00 W/m2
11:50 9.5 °C 8.1 °C 1007.3 hPa South 9.7 km/h 12.9 km/h 91% 0.8 mm 30.00 W/m2
11:55 9.6 °C 8.4 °C 1007.0 hPa South 13.0 km/h 12.9 km/h 92% 1.0 mm 28.00 W/m2
12:00 9.6 °C 8.4 °C 1007.0 hPa South 9.7 km/h 16.1 km/h 92% 1.0 mm 35.00 W/m2
12:05 9.6 °C 8.4 °C 1007.0 hPa SSW 7.9 km/h 12.9 km/h 92% 1.3 mm 33.00 W/m2
12:10 9.7 °C 8.5 °C 1007.0 hPa South 16.3 km/h 19.3 km/h 92% 1.5 mm 33.00 W/m2
12:15 9.8 °C 8.6 °C 1006.7 hPa South 13.0 km/h 17.7 km/h 92% 1.3 mm 37.00 W/m2
12:20 9.9 °C 8.7 °C 1006.7 hPa South 7.9 km/h 25.7 km/h 92% 1.5 mm 40.00 W/m2
12:25 9.9 °C 8.7 °C 1006.7 hPa SW 6.4 km/h 17.7 km/h 92% 1.5 mm 26.00 W/m2
12:30 9.9 °C 8.7 °C 1006.7 hPa WSW 4.7 km/h 16.1 km/h 92% 2.0 mm 21.00 W/m2
12:35 9.8 °C 8.6 °C 1006.7 hPa SW 13.0 km/h 16.1 km/h 92% 2.0 mm 18.00 W/m2
12:40 9.8 °C 8.6 °C 1006.3 hPa WSW 7.9 km/h 16.1 km/h 92% 2.3 mm 19.00 W/m2
12:45 9.8 °C 8.6 °C 1006.3 hPa SW 13.0 km/h 12.9 km/h 92% 2.5 mm 23.00 W/m2
12:50 9.8 °C 8.6 °C 1006.3 hPa SSW 6.4 km/h 17.7 km/h 92% 2.5 mm 53.00 W/m2
12:55 9.8 °C 8.6 °C 1006.3 hPa SSW 11.1 km/h 16.1 km/h 92% 2.3 mm 58.00 W/m2
13:00 9.9 °C 8.7 °C 1006.0 hPa South 7.9 km/h 20.9 km/h 92% 2.3 mm 35.00 W/m2
13:05 9.9 °C 8.7 °C 1006.0 hPa SSE 6.4 km/h 17.7 km/h 92% 2.3 mm 35.00 W/m2
13:10 9.9 °C 8.7 °C 1006.0 hPa SE 14.3 km/h 20.9 km/h 92% 2.3 mm 51.00 W/m2
13:15 9.9 °C 8.7 °C 1006.0 hPa South 7.9 km/h 24.1 km/h 92% 2.3 mm 51.00 W/m2
13:20 9.9 °C 8.7 °C 1005.6 hPa SSW 11.1 km/h 16.1 km/h 92% 2.3 mm 51.00 W/m2
13:25 9.9 °C 8.7 °C 1005.6 hPa SSW 14.3 km/h 19.3 km/h 92% 2.0 mm 51.00 W/m2
13:30 9.9 °C 8.7 °C 1005.6 hPa SSW 17.7 km/h 22.5 km/h 92% 2.0 mm 46.00 W/m2
13:35 10.0 °C 8.8 °C 1005.6 hPa South 6.4 km/h 20.9 km/h 92% 1.8 mm 30.00 W/m2
13:40 10.0 °C 8.8 °C 1005.3 hPa SW 13.0 km/h 17.7 km/h 92% 1.5 mm 56.00 W/m2
13:45 10.0 °C 8.8 °C 1005.3 hPa SSE 9.7 km/h 19.3 km/h 92% 1.0 mm 54.00 W/m2
13:50 10.0 °C 8.8 °C 1005.3 hPa SSW 6.4 km/h 16.1 km/h 92% 0.8 mm 49.00 W/m2
13:55 10.0 °C 8.8 °C 1005.3 hPa SSW 16.3 km/h 25.7 km/h 92% 0.8 mm 35.00 W/m2
14:00 9.9 °C 8.7 °C 1005.3 hPa SSW 25.9 km/h 25.7 km/h 92% 0.8 mm 37.00 W/m2
14:05 9.9 °C 8.7 °C 1005.3 hPa SW 11.1 km/h 24.1 km/h 92% 0.8 mm 51.00 W/m2
14:10 9.9 °C 8.7 °C 1005.0 hPa South 22.7 km/h 27.4 km/h 92% 0.5 mm 46.00 W/m2
14:15 9.8 °C 8.4 °C 1005.0 hPa South 17.7 km/h 17.7 km/h 91% 0.5 mm 44.00 W/m2
14:20 9.7 °C 8.5 °C 1005.0 hPa SW 17.7 km/h 19.3 km/h 92% 0.5 mm 47.00 W/m2
14:25 9.7 °C 8.5 °C 1005.0 hPa South 6.4 km/h 16.1 km/h 92% 0.5 mm 47.00 W/m2
14:30 9.6 °C 8.4 °C 1004.6 hPa SW 7.9 km/h 12.9 km/h 92% 0.5 mm 51.00 W/m2
14:35 9.6 °C 8.5 °C 1004.6 hPa SW 6.4 km/h 11.3 km/h 93% 0.5 mm 32.00 W/m2
14:40 9.6 °C 8.5 °C 1004.6 hPa SW 6.4 km/h 19.3 km/h 93% 0.5 mm 23.00 W/m2
14:45 9.6 °C 8.5 °C 1004.6 hPa WSW 14.3 km/h 17.7 km/h 93% 0.5 mm 23.00 W/m2
14:50 9.6 °C 8.5 °C 1004.6 hPa South 7.9 km/h 11.3 km/h 93% 0.5 mm 26.00 W/m2
14:55 9.7 °C 8.6 °C 1004.6 hPa SSW 11.1 km/h 20.9 km/h 93% 0.5 mm 65.00 W/m2
15:00 9.7 °C 8.6 °C 1004.6 hPa SW 11.1 km/h 12.9 km/h 93% 0.5 mm 40.00 W/m2
15:05 9.8 °C 8.7 °C 1004.3 hPa SW 14.3 km/h 16.1 km/h 93% 0.5 mm 25.00 W/m2
15:10 9.8 °C 8.7 °C 1004.6 hPa WSW 6.4 km/h 16.1 km/h 93% 0.5 mm 37.00 W/m2
15:16 9.9 °C 8.8 °C 1004.6 hPa WNW 7.9 km/h 14.5 km/h 93% 0.5 mm 18.00 W/m2
15:20 9.8 °C 8.7 °C 1004.6 hPa WSW 9.7 km/h 14.5 km/h 93% 0.8 mm 21.00 W/m2
15:25 9.7 °C 8.8 °C 1004.6 hPa West 11.1 km/h 14.5 km/h 94% 1.0 mm 19.00 W/m2
15:30 9.6 °C 8.7 °C 1004.6 hPa WNW 4.7 km/h 11.3 km/h 94% 1.0 mm 44.00 W/m2
15:35 9.6 °C 8.7 °C 1004.6 hPa West 6.4 km/h 14.5 km/h 94% 0.8 mm 47.00 W/m2
15:40 9.5 °C 8.6 °C 1004.6 hPa WNW 3.2 km/h 8.0 km/h 94% 0.8 mm 44.00 W/m2
15:45 9.4 °C 8.5 °C 1005.0 hPa West 9.7 km/h 12.9 km/h 94% 0.5 mm 42.00 W/m2
15:50 9.3 °C 8.4 °C 1005.0 hPa WNW 4.7 km/h 6.4 km/h 94% 0.5 mm 40.00 W/m2
15:55 9.2 °C 8.3 °C 1005.0 hPa NW 4.7 km/h 6.4 km/h 94% 0.5 mm 35.00 W/m2
16:00 9.2 °C 8.3 °C 1005.0 hPa WNW 3.2 km/h 6.4 km/h 94% 0.5 mm 23.00 W/m2
16:05 9.1 °C 8.2 °C 1005.0 hPa WNW 3.2 km/h 6.4 km/h 94% 0.5 mm 19.00 W/m2
16:10 9.1 °C 8.2 °C 1005.0 hPa WNW 3.2 km/h 8.0 km/h 94% 0.5 mm 11.00 W/m2
16:15 9.0 °C 8.1 °C 1005.0 hPa WNW 3.2 km/h 8.0 km/h 94% 0.5 mm 7.00 W/m2
16:20 8.9 °C 8.0 °C 1005.0 hPa West 6.4 km/h 17.7 km/h 94% 0.3 mm 9.00 W/m2
16:25 8.9 °C 8.0 °C 1005.0 hPa WNW 6.4 km/h 14.5 km/h 94% 0.0 mm 7.00 W/m2
16:30 8.9 °C 8.0 °C 1005.0 hPa NW 4.7 km/h 8.0 km/h 94% 0.0 mm 5.00 W/m2
16:35 8.8 °C 7.9 °C 1005.0 hPa NW 4.7 km/h 8.0 km/h 94% 0.0 mm 5.00 W/m2
16:40 8.7 °C 7.8 °C 1005.0 hPa West 3.2 km/h 9.7 km/h 94% 0.0 mm 0.00 W/m2
16:45 8.7 °C 7.8 °C 1005.0 hPa WNW 3.2 km/h 8.0 km/h 94% 0.0 mm 0.00 W/m2
16:50 8.6 °C 7.7 °C 1005.0 hPa West 6.4 km/h 14.5 km/h 94% 0.0 mm 0.00 W/m2
16:55 8.5 °C 7.6 °C 1005.0 hPa WNW 6.4 km/h 8.0 km/h 94% 0.0 mm 0.00 W/m2
17:00 8.4 °C 7.5 °C 1005.0 hPa NW 7.9 km/h 8.0 km/h 94% 0.0 mm 0.00 W/m2
17:05 8.3 °C 7.4 °C 1005.0 hPa West 4.7 km/h 9.7 km/h 94% 0.0 mm 0.00 W/m2
17:10 8.3 °C 7.4 °C 1005.3 hPa West 3.2 km/h 8.0 km/h 94% 0.0 mm 0.00 W/m2
17:15 8.2 °C 7.3 °C 1005.3 hPa WNW 3.2 km/h 6.4 km/h 94% 0.0 mm 0.00 W/m2
17:20 8.2 °C 7.3 °C 1005.3 hPa West 4.7 km/h 9.7 km/h 94% 0.0 mm 0.00 W/m2
17:25 8.1 °C 7.2 °C 1005.3 hPa WNW 4.7 km/h 8.0 km/h 94% 0.0 mm 0.00 W/m2
17:30 8.1 °C 7.2 °C 1005.3 hPa WNW 3.2 km/h 6.4 km/h 94% 0.0 mm 0.00 W/m2
17:35 8.1 °C 7.2 °C 1005.3 hPa West 3.2 km/h 8.0 km/h 94% 0.0 mm 0.00 W/m2
17:40 8.1 °C 7.2 °C 1005.0 hPa West 4.7 km/h 4.8 km/h 94% 0.0 mm 0.00 W/m2
17:45 8.1 °C 7.2 °C 1005.3 hPa West 3.2 km/h 6.4 km/h 94% 0.0 mm 0.00 W/m2
17:50 8.1 °C 7.2 °C 1005.3 hPa WNW 1.4 km/h 4.8 km/h 94% 0.0 mm 0.00 W/m2
17:55 8.1 °C 7.2 °C 1005.3 hPa WNW 1.4 km/h 4.8 km/h 94% 0.0 mm 0.00 W/m2
18:00 8.1 °C 7.2 °C 1005.3 hPa WSW 1.4 km/h 6.4 km/h 94% 0.0 mm 0.00 W/m2
18:05 8.0 °C 7.1 °C 1005.3 hPa WSW 1.4 km/h 4.8 km/h 94% 0.0 mm 0.00 W/m2
18:10 7.9 °C 7.0 °C 1005.3 hPa Calm   3.2 km/h 94% 0.0 mm 0.00 W/m2
18:15 7.9 °C 7.0 °C 1005.3 hPa WSW 1.4 km/h 3.2 km/h 94% 0.0 mm 0.00 W/m2
18:20 7.8 °C 6.9 °C 1005.0 hPa WSW 1.4 km/h 3.2 km/h 94% 0.0 mm 0.00 W/m2
18:25 7.8 °C 6.9 °C 1005.0 hPa WSW 1.4 km/h 3.2 km/h 94% 0.0 mm 0.00 W/m2
18:30 7.8 °C 6.9 °C 1005.0 hPa Calm     94% 0.0 mm 0.00 W/m2
18:35 7.7 °C 6.8 °C 1005.0 hPa Calm     94% 0.0 mm 0.00 W/m2
18:40 7.6 °C 6.7 °C 1005.0 hPa Calm   1.6 km/h 94% 0.0 mm 0.00 W/m2
18:45 7.4 °C 6.7 °C 1005.0 hPa WSW 3.2 km/h 3.2 km/h 95% 0.0 mm 0.00 W/m2
18:50 7.4 °C 6.5 °C 1005.3 hPa WSW 3.2 km/h 4.8 km/h 94% 0.0 mm 0.00 W/m2
18:55 7.4 °C 6.7 °C 1005.3 hPa NW 6.4 km/h 6.4 km/h 95% 0.0 mm 0.00 W/m2
19:00 7.4 °C 6.5 °C 1005.3 hPa WNW 3.2 km/h 4.8 km/h 94% 0.3 mm 0.00 W/m2
19:05 7.4 °C 6.7 °C 1005.3 hPa WNW 3.2 km/h 4.8 km/h 95% 0.3 mm 0.00 W/m2
19:10 7.4 °C 6.7 °C 1005.3 hPa WNW 4.7 km/h 4.8 km/h 95% 0.3 mm 0.00 W/m2
19:15 7.3 °C 6.6 °C 1005.3 hPa NW 3.2 km/h 6.4 km/h 95% 0.3 mm 0.00 W/m2
19:20 7.3 °C 6.6 °C 1005.3 hPa NW 4.7 km/h 4.8 km/h 95% 0.3 mm 0.00 W/m2
19:25 7.3 °C 6.6 °C 1005.3 hPa Calm   3.2 km/h 95% 0.3 mm 0.00 W/m2
19:30 7.3 °C 6.6 °C 1005.3 hPa NW 3.2 km/h 6.4 km/h 95% 0.3 mm 0.00 W/m2
19:35 7.2 °C 6.5 °C 1005.3 hPa NNW 4.7 km/h 6.4 km/h 95% 0.3 mm 0.00 W/m2
19:40 7.2 °C 6.5 °C 1005.3 hPa NW 3.2 km/h 4.8 km/h 95% 0.3 mm 0.00 W/m2
19:45 7.1 °C 6.4 °C 1005.3 hPa NW 4.7 km/h 6.4 km/h 95% 0.3 mm 0.00 W/m2
19:50 7.1 °C 6.4 °C 1005.3 hPa NW 1.4 km/h 1.6 km/h 95% 0.3 mm 0.00 W/m2
19:55 7.0 °C 6.3 °C 1005.3 hPa NW 1.4 km/h 3.2 km/h 95% 0.3 mm 0.00 W/m2
20:00 6.8 °C 6.1 °C 1005.3 hPa NW 1.4 km/h 3.2 km/h 95% 0.0 mm 0.00 W/m2
20:05 6.8 °C 6.1 °C 1005.0 hPa Calm   1.6 km/h 95% 0.0 mm 0.00 W/m2
20:10 6.8 °C 6.1 °C 1005.0 hPa WSW 4.7 km/h 6.4 km/h 95% 0.0 mm 0.00 W/m2
20:15 7.1 °C 6.4 °C 1005.0 hPa SSW 1.4 km/h 6.4 km/h 95% 0.0 mm 0.00 W/m2
20:20 7.3 °C 6.6 °C 1005.3 hPa SW 6.4 km/h 9.7 km/h 95% 0.0 mm 0.00 W/m2
20:25 7.3 °C 6.6 °C 1005.3 hPa SW 4.7 km/h 9.7 km/h 95% 0.0 mm 0.00 W/m2
20:30 7.3 °C 6.6 °C 1005.3 hPa SW 3.2 km/h 6.4 km/h 95% 0.0 mm 0.00 W/m2
20:35 7.3 °C 6.6 °C 1005.0 hPa SW 3.2 km/h 4.8 km/h 95% 0.0 mm 0.00 W/m2
20:40 7.3 °C 6.6 °C 1005.0 hPa SW 1.4 km/h 3.2 km/h 95% 0.0 mm 0.00 W/m2
20:45 7.4 °C 6.7 °C 1005.0 hPa SW 4.7 km/h 8.0 km/h 95% 0.0 mm 0.00 W/m2